Pagrindinis puslapis
METAR-TAF:

METAR-TAF

Oro uostai :

Žemutinis Naugardas, Rusija

platuma: 56-19-48N, ilguma: 044-00E, Aukštis: 78 m

Dabartinis oras

Ataskaita buvo paskelbta 48 minutes, ne 11:00 UTC
Vėjas 8 kt iš Pietryčių, svyruoja nuo Rytų ir Pietų
Temperatūra 24°C
Drėgmė 47%
Slėgis 1018 hPa
Matomumas 10 km arba daugiau
Mažai debesys ne aukštis 4000 ft

METAR: UWGG 291100Z 14004MPS 090V170 9999 FEW040 24/12 Q1018 R18L/090070 NOSIG

Laikas: 14:48 (11:48 UTC)

Prognozė

Ataskaita buvo paskelbta 58 minutes, ne 10:50 UTC
Prognozė galioja nuo 29 metu 12 UTC su 30 metu 12 UTC
Vėjas 6 kt iš Pietų/Pietryčių
Matomumas 10 km arba daugiau
Su prošvaistėmis ne aukštis 3000 ft
Laikinai
nuo 29 metu 12 UTC su 29 metu 15 UTC
Vėjas 10 kt iš Pietų/Pietryčių su gūsio iki 19 kt
Su prošvaistėmis ne aukštis 2000 ft, Liūtiniai kamuoliniai debesys.

TAF: UWGG 291050Z 2912/3012 15003MPS 9999 BKN030 TX27/3012Z TN12/3003Z TEMPO 2912/2915 16005G10MPS BKN020CB

Orai ataskaitas ir orų prognozės (METAR, TAF).

turimą stotys yra geltonos ir raudonos taškus žemėlapyje.

Perkelti pele per norėdami pamatyti stoties vardą.

Tada spustelėkite, norėdami matyti oro stebėjimo ir prognozės.

Norėdami pakeisti žemėlapį: spustelėkite ant žalios mygtukų su juodo kryžiaus žemyn,; žalią mygtuką su brūkšneliu, jei norite nutolinti; arba žalių rodyklių gretimoms žemėlapius.


METAR-TAF: